This is the latest recevied weather packets stored in our database for station/object N3WMC. If no packets are shown the sender has not sent any weather packets the latest 10 day(s).
| Time | Temp. | Humidity | Pressure | Rain* | Wind** | Luminosity | Snow |
|---|---|---|---|---|---|---|---|
| 1787608969 | 22.78° C | 54% | 1017.6 hPa | 0 mm | - | 143 W/m² | - |
| 1787608664 | 22.22° C | 55% | 1017.5 hPa | 0 mm | - | 176 W/m² | - |
| 1787608358 | 23.33° C | 56% | 1017.5 hPa | 0 mm | - | 184 W/m² | - |
| 1787608056 | 21.67° C | 58% | 1017.5 hPa | 0 mm | - | 176 W/m² | - |
| 1787607746 | 22.22° C | 55% | 1017.5 hPa | 0 mm | - | 106 W/m² | - |
| 1787607443 | 22.78° C | 53% | 1017.3 hPa | 0 mm | - | 122 W/m² | - |
| 1787607139 | 22.78° C | 52% | 1017.4 hPa | 0 mm | - | 210 W/m² | - |
| 1787606834 | 23.33° C | 52% | 1017.4 hPa | 0 mm | - | 241 W/m² | - |
| 1787606532 | 23.33° C | 53% | 1017.3 hPa | 0 mm | - | 240 W/m² | - |
| 1787606232 | 22.22° C | 57% | 1017.3 hPa | 0 mm | - | 276 W/m² | - |
| 1787605931 | 22.78° C | 56% | 1017.2 hPa | 0 mm | - | 80 W/m² | - |
| 1787605630 | 22.22° C | 57% | 1017.3 hPa | 0 mm | - | 302 W/m² | - |
| 1787605326 | 23.33° C | 54% | 1017.3 hPa | 0 mm | - | 121 W/m² | - |
| 1787605022 | 22.78° C | 55% | 1017.2 hPa | 0 mm | - | 342 W/m² | - |
| 1787604721 | 22.22° C | 55% | 1017.4 hPa | 0 mm | - | 209 W/m² | - |
| 1787604415 | 22.22° C | 55% | 1017.1 hPa | 0 mm | - | 307 W/m² | - |
| 1787604110 | 22.22° C | 57% | 1017.3 hPa | 0 mm | - | 148 W/m² | - |
| 1787603810 | 21.67° C | 57% | 1017.4 hPa | 0 mm | - | 366 W/m² | - |
| 1787603505 | 21.67° C | 58% | 1017.4 hPa | 0 mm | - | 148 W/m² | - |
| 1787603201 | 22.22° C | 56% | 1017.4 hPa | 0 mm | - | 137 W/m² | - |
| 1787602897 | 22.22° C | 55% | 1017.4 hPa | 0 mm | - | 238 W/m² | - |
| 1787602592 | 21.67° C | 57% | 1017.3 hPa | 0 mm | - | 127 W/m² | - |
| 1787602287 | 21.67° C | 57% | 1017.4 hPa | 0 mm | - | 150 W/m² | - |
| 1787601986 | 21.67° C | 56% | 1017.4 hPa | 0 mm | - | 229 W/m² | - |
| 1787601675 | 21.67° C | 58% | 1017.3 hPa | 0 mm | - | 165 W/m² | - |
* Rain latest hour (hover to see other rain measurements)
** Current wind speed in m/s (hover to see current wind gust speed)